createdAt,value
2017-09-20T00:00:42.907Z,77.79
2017-09-20T00:03:10.778Z,77.50
2017-09-20T00:05:38.393Z,77.68
2017-09-20T00:08:05.979Z,77.88
2017-09-20T00:10:33.595Z,77.68
2017-09-20T00:13:01.199Z,78.08
2017-09-20T00:15:28.783Z,78.46
2017-09-20T00:17:56.404Z,78.66
2017-09-20T00:20:23.984Z,78.54
2017-09-20T00:22:51.556Z,78.55
2017-09-20T00:25:19.160Z,78.61
2017-09-20T00:27:46.768Z,78.42
2017-09-20T00:30:14.391Z,78.36
2017-09-20T00:32:41.977Z,78.07
2017-09-20T00:35:09.584Z,78.02
2017-09-20T00:37:37.542Z,77.90
2017-09-20T00:40:05.128Z,78.98
2017-09-20T00:42:33.173Z,79.00
2017-09-20T00:45:00.753Z,79.29
2017-09-20T00:47:28.402Z,79.21
2017-09-20T00:49:56.067Z,78.95
2017-09-20T00:52:23.863Z,79.44
2017-09-20T00:55:02.420Z,79.18
2017-09-20T00:57:30.191Z,79.26
2017-09-20T00:59:59.876Z,79.28
2017-09-20T01:02:27.480Z,79.63
2017-09-20T01:04:55.059Z,79.89
2017-09-20T01:07:22.683Z,80.12
2017-09-20T01:09:50.257Z,80.35
2017-09-20T01:12:17.898Z,80.10
2017-09-20T01:14:46.925Z,79.98
2017-09-20T01:17:15.882Z,80.02
2017-09-20T01:19:43.539Z,79.95
2017-09-20T01:22:23.092Z,80.06
2017-09-20T01:24:50.988Z,79.69
2017-09-20T01:27:18.571Z,79.86
2017-09-20T01:29:48.758Z,79.72
2017-09-20T01:32:16.615Z,79.42
2017-09-20T01:34:45.528Z,79.44
2017-09-20T01:37:13.500Z,79.49
2017-09-20T01:39:41.314Z,79.31
2017-09-20T01:42:14.882Z,79.39
2017-09-20T01:44:42.736Z,79.76
2017-09-20T01:47:10.324Z,79.65
2017-09-20T01:49:38.869Z,80.09
2017-09-20T01:52:06.452Z,80.33
2017-09-20T01:54:34.099Z,80.47
2017-09-20T01:57:01.700Z,80.38
2017-09-20T01:59:29.280Z,80.26
2017-09-20T02:01:57.735Z,80.29
2017-09-20T02:04:25.391Z,80.29
2017-09-20T02:06:53.464Z,80.33
2017-09-20T02:09:21.256Z,80.23
2017-09-20T02:11:49.885Z,79.70
2017-09-20T02:14:17.524Z,80.07
2017-09-20T02:16:45.106Z,80.07
2017-09-20T02:19:12.739Z,80.07
2017-09-20T02:21:40.319Z,80.05
2017-09-20T02:24:07.900Z,80.05
2017-09-20T02:26:35.510Z,80.07
2017-09-20T02:29:03.444Z,80.08
2017-09-20T02:31:31.059Z,80.07
2017-09-20T02:33:58.651Z,80.00
2017-09-20T02:36:26.248Z,80.04
2017-09-20T02:38:53.876Z,80.26
2017-09-20T02:41:21.757Z,80.41
2017-09-20T02:43:49.371Z,80.36
2017-09-20T02:46:16.958Z,80.18
2017-09-20T02:48:44.850Z,80.33
2017-09-20T02:51:12.484Z,80.39
2017-09-20T02:53:40.058Z,80.47
2017-09-20T02:56:07.679Z,80.41
2017-09-20T02:58:35.393Z,80.61
2017-09-20T03:01:03.003Z,80.10
2017-09-20T03:03:30.923Z,80.62
2017-09-20T03:05:58.550Z,81.67
2017-09-20T03:08:26.168Z,81.61
2017-09-20T03:10:53.744Z,81.85
2017-09-20T03:13:21.586Z,81.89
2017-09-20T03:15:49.198Z,81.59
2017-09-20T03:18:16.768Z,81.62
2017-09-20T03:20:44.384Z,81.86
2017-09-20T03:23:11.966Z,81.81
2017-09-20T03:25:39.549Z,82.34
2017-09-20T03:28:07.159Z,82.43
2017-09-20T03:30:34.742Z,82.55
2017-09-20T03:33:02.371Z,82.42
2017-09-20T03:35:29.967Z,82.07
2017-09-20T03:37:57.555Z,81.90
2017-09-20T03:40:25.460Z,81.76
2017-09-20T03:42:53.042Z,81.68
2017-09-20T03:45:20.806Z,81.61
2017-09-20T03:47:48.434Z,81.77
2017-09-20T03:50:16.024Z,81.87
2017-09-20T03:52:43.641Z,81.73
2017-09-20T03:55:11.224Z,81.66
2017-09-20T03:57:38.838Z,81.69
2017-09-20T04:00:06.429Z,81.66
2017-09-20T04:02:34.019Z,81.67
2017-09-20T04:05:01.642Z,81.76
2017-09-20T04:07:29.229Z,82.18
2017-09-20T04:09:56.859Z,82.13
2017-09-20T04:12:24.771Z,82.12
2017-09-20T04:14:52.357Z,81.96
2017-09-20T04:17:19.983Z,81.81
2017-09-20T04:19:47.575Z,81.75
2017-09-20T04:22:15.200Z,81.62
2017-09-20T04:24:42.786Z,81.56
2017-09-20T04:27:10.375Z,81.77
2017-09-20T04:29:37.991Z,81.69
2017-09-20T04:32:05.585Z,81.71
2017-09-20T04:34:33.537Z,81.81
2017-09-20T04:37:01.115Z,81.78
2017-09-20T04:39:28.699Z,82.20
2017-09-20T04:41:56.324Z,82.24
2017-09-20T04:44:24.189Z,82.40
2017-09-20T04:46:51.815Z,82.43
2017-09-20T04:49:19.722Z,82.54
2017-09-20T04:51:47.311Z,82.37
2017-09-20T04:54:14.912Z,82.25
2017-09-20T04:56:42.592Z,82.25
2017-09-20T04:59:10.214Z,82.31
2017-09-20T05:01:37.867Z,82.06
2017-09-20T05:04:05.449Z,82.25
2017-09-20T05:06:33.059Z,82.24
2017-09-20T05:09:00.635Z,82.76
2017-09-20T05:11:28.231Z,82.93
2017-09-20T05:13:55.855Z,83.46
2017-09-20T05:16:23.436Z,83.29
2017-09-20T05:18:51.034Z,83.48
2017-09-20T05:21:18.656Z,83.92
2017-09-20T05:23:46.233Z,84.56
2017-09-20T05:26:13.823Z,84.34
2017-09-20T05:28:41.734Z,84.07
2017-09-20T05:31:09.315Z,83.92
2017-09-20T05:33:36.970Z,83.88
2017-09-20T05:36:04.578Z,83.69
2017-09-20T05:38:32.169Z,83.50
2017-09-20T05:40:59.777Z,84.07
2017-09-20T05:43:27.362Z,84.22
2017-09-20T05:45:55.017Z,84.18
2017-09-20T05:48:22.620Z,84.62
2017-09-20T05:50:50.250Z,84.52
2017-09-20T05:53:17.859Z,85.04
2017-09-20T05:55:45.709Z,84.67
2017-09-20T05:58:13.373Z,85.19
2017-09-20T06:00:40.970Z,85.10
2017-09-20T06:03:08.904Z,85.05
2017-09-20T06:05:36.765Z,85.38
2017-09-20T06:08:04.349Z,85.09
2017-09-20T06:10:31.982Z,85.16
2017-09-20T06:12:59.559Z,84.92
2017-09-20T06:15:27.140Z,84.88
2017-09-20T06:17:54.781Z,84.88
2017-09-20T06:20:22.368Z,84.62
2017-09-20T06:22:50.000Z,84.57
2017-09-20T06:25:17.602Z,84.54
2017-09-20T06:27:45.189Z,85.02
2017-09-20T06:30:12.815Z,85.04
2017-09-20T06:32:40.496Z,84.88
2017-09-20T06:35:08.122Z,84.79
2017-09-20T06:37:35.713Z,84.67
2017-09-20T06:40:03.325Z,85.03
2017-09-20T06:42:30.932Z,85.27
2017-09-20T06:44:58.535Z,85.18
2017-09-20T06:47:26.159Z,85.75
2017-09-20T06:49:54.351Z,85.57
2017-09-20T06:52:21.966Z,85.49
2017-09-20T06:54:49.575Z,85.01
2017-09-20T06:57:17.167Z,84.20
2017-09-20T06:59:44.831Z,83.84
2017-09-20T07:02:12.711Z,83.39
2017-09-20T07:04:40.580Z,82.84
2017-09-20T07:07:08.444Z,81.75
2017-09-20T07:09:36.024Z,81.59
2017-09-20T07:12:03.650Z,80.10
2017-09-20T07:14:31.539Z,79.25
2017-09-20T07:16:59.131Z,79.14
2017-09-20T07:19:27.069Z,77.97
2017-09-20T07:21:54.661Z,78.41
2017-09-20T07:24:22.282Z,78.26
2017-09-20T07:26:49.865Z,77.84
2017-09-20T07:29:17.442Z,78.22
2017-09-20T07:31:45.043Z,78.18
2017-09-20T07:34:12.644Z,78.43
2017-09-20T07:36:40.296Z,78.66
2017-09-20T07:39:08.201Z,78.82
2017-09-20T07:41:35.790Z,79.18
2017-09-20T07:44:03.408Z,79.05
2017-09-20T07:46:30.991Z,78.70
2017-09-20T07:48:58.616Z,78.68
2017-09-20T07:51:26.484Z,78.82
2017-09-20T07:53:54.077Z,78.50
2017-09-20T07:56:21.674Z,77.31
2017-09-20T07:58:49.255Z,76.61
2017-09-20T08:01:16.876Z,75.81
2017-09-20T08:03:44.499Z,75.29
2017-09-20T08:06:12.097Z,74.52
2017-09-20T08:08:39.721Z,74.00
2017-09-20T08:11:07.304Z,74.41
2017-09-20T08:13:35.263Z,74.58
2017-09-20T08:16:02.872Z,75.22
2017-09-20T08:18:30.475Z,74.54
2017-09-20T08:20:58.082Z,74.10
2017-09-20T08:23:25.652Z,73.55
2017-09-20T08:25:53.285Z,73.21
2017-09-20T08:28:20.915Z,73.50
2017-09-20T08:30:48.518Z,72.67
2017-09-20T08:33:16.164Z,71.94
2017-09-20T08:35:43.806Z,71.74
2017-09-20T08:38:11.440Z,69.67
2017-09-20T08:40:39.336Z,68.73
2017-09-20T08:43:06.934Z,68.86
2017-09-20T08:45:34.828Z,67.98
2017-09-20T08:48:02.459Z,68.03
2017-09-20T08:50:30.076Z,67.99
2017-09-20T08:52:57.678Z,66.72
2017-09-20T08:55:25.264Z,66.69
2017-09-20T08:57:52.897Z,66.72
2017-09-20T09:00:20.481Z,66.08
2017-09-20T09:02:48.469Z,66.35
2017-09-20T09:05:16.060Z,64.32
2017-09-20T09:07:43.635Z,63.32
2017-09-20T09:10:11.243Z,61.80
2017-09-20T09:12:39.167Z,62.58
2017-09-20T09:15:07.033Z,62.16
2017-09-20T09:17:34.623Z,62.96
2017-09-20T09:20:02.199Z,64.36
2017-09-20T09:22:29.816Z,64.61
2017-09-20T09:24:57.418Z,64.02
2017-09-20T09:27:25.051Z,63.15
2017-09-20T09:29:52.688Z,63.98
2017-09-20T09:32:20.275Z,65.68
2017-09-20T09:34:47.896Z,66.36
2017-09-20T09:37:15.795Z,66.30
2017-09-20T09:39:43.431Z,66.53
2017-09-20T09:42:11.257Z,66.51
2017-09-20T09:44:38.837Z,66.48
2017-09-20T09:47:06.455Z,67.57
2017-09-20T09:49:34.065Z,67.79
2017-09-20T09:52:01.723Z,67.69
2017-09-20T09:54:29.352Z,67.93
2017-09-20T09:56:56.931Z,68.20
2017-09-20T09:59:24.544Z,66.87
2017-09-20T10:01:52.426Z,66.95
2017-09-20T10:04:20.054Z,66.42
2017-09-20T10:06:47.655Z,65.99
2017-09-20T10:09:15.240Z,65.21
2017-09-20T10:11:42.857Z,65.34
2017-09-20T10:14:10.448Z,65.59
2017-09-20T10:16:38.083Z,65.43
2017-09-20T10:19:05.672Z,65.65
2017-09-20T10:21:33.248Z,65.89
2017-09-20T10:24:00.852Z,65.48
2017-09-20T10:26:28.431Z,64.61
2017-09-20T10:28:56.053Z,62.65
2017-09-20T10:31:23.968Z,63.08
2017-09-20T10:33:51.836Z,63.88
2017-09-20T10:36:19.711Z,66.98
2017-09-20T10:38:47.571Z,68.99
2017-09-20T10:41:15.223Z,71.09
2017-09-20T10:43:42.800Z,73.12
2017-09-20T10:46:10.380Z,73.36
2017-09-20T10:48:38.062Z,75.55
2017-09-20T10:51:05.674Z,76.61
2017-09-20T10:53:33.458Z,76.73
2017-09-20T10:56:01.471Z,75.93
2017-09-20T10:58:29.067Z,75.90
2017-09-20T11:00:56.676Z,75.67
2017-09-20T11:03:24.252Z,74.10
2017-09-20T11:05:51.914Z,74.79
2017-09-20T11:08:19.515Z,73.65
2017-09-20T11:10:47.097Z,73.36
2017-09-20T11:13:14.716Z,72.24
2017-09-20T11:15:42.295Z,72.21
2017-09-20T11:18:09.948Z,73.51
2017-09-20T11:20:37.575Z,72.58
2017-09-20T11:23:05.170Z,72.70
2017-09-20T11:25:32.860Z,73.14
2017-09-20T11:28:00.737Z,74.54
2017-09-20T11:30:28.355Z,75.20
2017-09-20T11:32:55.941Z,76.06
2017-09-20T11:35:23.539Z,75.56
2017-09-20T11:37:51.146Z,73.57
2017-09-20T11:40:18.732Z,72.40
2017-09-20T11:42:46.427Z,72.75
2017-09-20T11:45:14.012Z,72.66
2017-09-20T11:47:41.602Z,71.87
2017-09-20T11:50:09.211Z,70.86
2017-09-20T11:52:37.093Z,71.03
2017-09-20T11:55:05.024Z,70.70
2017-09-20T11:57:32.653Z,69.88
2017-09-20T12:00:00.250Z,71.04
2017-09-20T12:02:27.837Z,70.63
2017-09-20T12:04:55.783Z,70.72
2017-09-20T12:07:23.363Z,71.71
2017-09-20T12:09:50.988Z,70.98
2017-09-20T12:12:18.599Z,69.95
2017-09-20T12:14:46.179Z,69.42
2017-09-20T12:17:14.096Z,68.73
2017-09-20T12:19:41.671Z,68.96
2017-09-20T12:22:09.525Z,68.01
2017-09-20T12:24:37.131Z,66.26
2017-09-20T12:27:04.708Z,65.47
2017-09-20T12:29:32.327Z,66.40
2017-09-20T12:31:59.916Z,68.98
2017-09-20T12:34:27.527Z,70.04
2017-09-20T12:36:55.127Z,70.24
2017-09-20T12:39:22.725Z,69.81
2017-09-20T12:41:51.021Z,70.38
2017-09-20T12:44:18.621Z,70.20
2017-09-20T12:46:46.258Z,70.05
2017-09-20T12:49:13.978Z,70.42
2017-09-20T12:51:41.646Z,70.62
2017-09-20T12:54:09.269Z,69.85
2017-09-20T12:56:37.111Z,68.68
2017-09-20T12:59:04.696Z,68.67
2017-09-20T13:01:32.295Z,69.02
2017-09-20T13:04:00.209Z,69.43
2017-09-20T13:06:27.865Z,69.57
2017-09-20T13:08:55.447Z,69.57
2017-09-20T13:11:23.044Z,69.47
2017-09-20T13:13:50.648Z,69.03
2017-09-20T13:16:18.264Z,67.60
2017-09-20T13:18:45.882Z,67.72
2017-09-20T13:21:13.457Z,67.58
2017-09-20T13:23:41.256Z,65.87
2017-09-20T13:26:08.895Z,64.93
2017-09-20T13:28:36.969Z,65.31
2017-09-20T13:31:04.657Z,64.82
2017-09-20T13:33:32.248Z,64.88
2017-09-20T13:35:59.840Z,66.29
2017-09-20T13:38:27.481Z,66.25
2017-09-20T13:40:55.083Z,66.77
2017-09-20T13:43:22.731Z,67.83
2017-09-20T13:45:50.385Z,67.59
2017-09-20T13:48:18.445Z,67.29
2017-09-20T13:50:46.196Z,67.47
2017-09-20T13:53:13.879Z,67.16
2017-09-20T13:55:41.500Z,66.82
2017-09-20T13:58:09.418Z,66.28
2017-09-20T14:00:37.000Z,64.38
2017-09-20T14:03:04.704Z,64.19
2017-09-20T14:05:33.584Z,62.98
2017-09-20T14:08:01.200Z,62.56
2017-09-20T14:10:29.054Z,62.57
2017-09-20T14:12:56.632Z,62.08
2017-09-20T14:15:24.286Z,61.99
2017-09-20T14:17:51.928Z,61.58
2017-09-20T14:20:19.575Z,61.54
2017-09-20T14:22:47.161Z,60.52
2017-09-20T14:25:14.742Z,57.42
2017-09-20T14:27:42.352Z,57.65
2017-09-20T14:30:09.947Z,56.63
2017-09-20T14:32:37.888Z,54.45
2017-09-20T14:35:05.465Z,54.77
2017-09-20T14:37:33.048Z,52.85
2017-09-20T14:40:00.652Z,53.55
2017-09-20T14:42:28.243Z,53.77
2017-09-20T14:44:55.851Z,54.50
2017-09-20T14:47:23.434Z,53.73
2017-09-20T14:49:51.251Z,52.64
2017-09-20T14:52:18.937Z,52.04
2017-09-20T14:54:46.520Z,53.03
2017-09-20T14:57:14.508Z,52.82
2017-09-20T14:59:42.096Z,52.71
2017-09-20T15:02:09.707Z,53.15
2017-09-20T15:04:37.315Z,53.70
2017-09-20T15:07:04.903Z,53.38
2017-09-20T15:09:32.765Z,53.67
2017-09-20T15:12:00.340Z,54.24
2017-09-20T15:14:27.950Z,53.67
2017-09-20T15:16:55.571Z,54.24
2017-09-20T15:19:23.164Z,53.03
2017-09-20T15:21:50.836Z,53.07
2017-09-20T15:24:18.426Z,53.61
2017-09-20T15:26:46.036Z,53.14
2017-09-20T15:29:13.710Z,53.44
2017-09-20T15:31:41.658Z,52.56
2017-09-20T15:34:09.280Z,52.98
2017-09-20T15:36:36.900Z,53.40
2017-09-20T15:39:04.826Z,53.75
2017-09-20T15:41:32.436Z,54.33
2017-09-20T15:44:00.011Z,54.35
2017-09-20T15:46:27.631Z,55.15
2017-09-20T15:48:55.244Z,55.47
2017-09-20T15:51:22.823Z,55.95
2017-09-20T15:53:50.448Z,56.57
2017-09-20T15:56:18.029Z,57.20
2017-09-20T15:58:45.660Z,57.67
2017-09-20T16:01:13.240Z,58.09
2017-09-20T16:03:40.825Z,58.50
2017-09-20T16:06:08.479Z,58.78
2017-09-20T16:08:36.375Z,59.13
2017-09-20T16:11:04.015Z,59.54
2017-09-20T16:13:31.599Z,60.00
2017-09-20T16:15:59.464Z,59.28
2017-09-20T16:18:27.073Z,58.85
2017-09-20T16:20:54.660Z,59.36
2017-09-20T16:23:22.318Z,59.49
2017-09-20T16:25:50.223Z,59.35
2017-09-20T16:28:17.813Z,59.61
2017-09-20T16:30:45.447Z,60.10
2017-09-20T16:33:13.045Z,60.17
2017-09-20T16:35:40.676Z,60.80
2017-09-20T16:38:08.270Z,61.21
2017-09-20T16:40:35.854Z,61.45
2017-09-20T16:43:03.453Z,61.85
2017-09-20T16:45:31.032Z,62.14
2017-09-20T16:47:58.707Z,62.63
2017-09-20T16:50:26.286Z,63.02
2017-09-20T16:52:53.864Z,63.33
2017-09-20T16:55:21.543Z,63.58
2017-09-20T16:57:49.273Z,63.93
2017-09-20T17:00:16.968Z,64.14
2017-09-20T17:02:44.674Z,64.13
2017-09-20T17:05:12.334Z,64.55
2017-09-20T17:07:40.295Z,64.87
2017-09-20T17:10:07.884Z,64.65
2017-09-20T17:12:35.505Z,65.22
2017-09-20T17:15:03.082Z,65.37
2017-09-20T17:17:30.679Z,65.43
2017-09-20T17:19:58.603Z,65.84
2017-09-20T17:22:26.190Z,65.84
2017-09-20T17:24:53.810Z,66.08
2017-09-20T17:27:21.408Z,66.58
2017-09-20T17:29:48.988Z,66.60
2017-09-20T17:32:16.919Z,66.75
2017-09-20T17:34:44.800Z,66.63
2017-09-20T17:37:12.447Z,66.27
2017-09-20T17:39:40.056Z,66.64
2017-09-20T17:42:07.644Z,66.46
2017-09-20T17:44:35.249Z,66.53
2017-09-20T17:47:02.818Z,66.17
2017-09-20T17:49:30.460Z,66.09
2017-09-20T17:51:58.032Z,66.38
2017-09-20T17:54:25.599Z,66.20
2017-09-20T17:56:53.199Z,66.00
2017-09-20T17:59:20.771Z,66.35
2017-09-20T18:01:48.387Z,66.68
2017-09-20T18:04:16.230Z,66.73
2017-09-20T18:06:43.824Z,66.95
2017-09-20T18:09:11.427Z,66.49
2017-09-20T18:11:39.017Z,66.84
2017-09-20T18:14:06.873Z,66.93
2017-09-20T18:16:34.451Z,66.62
2017-09-20T18:19:02.029Z,67.25
2017-09-20T18:21:29.643Z,66.86
2017-09-20T18:23:57.531Z,67.40
2017-09-20T18:26:25.384Z,67.52
2017-09-20T18:28:53.008Z,67.52
2017-09-20T18:31:20.597Z,67.70
2017-09-20T18:33:48.212Z,67.71
2017-09-20T18:36:15.795Z,67.73
2017-09-20T18:38:43.422Z,67.72
2017-09-20T18:41:11.050Z,67.89
2017-09-20T18:43:38.620Z,67.61
2017-09-20T18:46:06.250Z,67.04
2017-09-20T18:48:33.856Z,67.23
2017-09-20T18:51:01.476Z,67.49
2017-09-20T18:53:29.066Z,67.21
2017-09-20T18:55:56.639Z,66.87
2017-09-20T18:58:24.258Z,66.91
2017-09-20T19:00:51.836Z,66.69
2017-09-20T19:03:19.424Z,66.98
2017-09-20T19:05:47.052Z,66.90
2017-09-20T19:08:14.671Z,67.16
2017-09-20T19:10:42.251Z,67.24
2017-09-20T19:13:10.184Z,67.37
2017-09-20T19:15:37.777Z,67.41
2017-09-20T19:18:05.359Z,67.75
2017-09-20T19:20:33.271Z,67.96
2017-09-20T19:23:00.858Z,68.18
2017-09-20T19:25:28.494Z,68.34
2017-09-20T19:27:56.078Z,68.61
2017-09-20T19:30:23.700Z,68.86
2017-09-20T19:32:51.367Z,69.61
2017-09-20T19:35:18.982Z,69.89
2017-09-20T19:37:46.615Z,70.39
2017-09-20T19:40:14.223Z,70.35
2017-09-20T19:42:41.829Z,70.39
2017-09-20T19:45:09.464Z,70.50
2017-09-20T19:47:37.082Z,70.30
2017-09-20T19:50:04.732Z,70.55
2017-09-20T19:52:32.321Z,70.45
2017-09-20T19:54:59.903Z,70.73
2017-09-20T19:57:27.532Z,71.00
2017-09-20T19:59:55.136Z,71.20
2017-09-20T20:02:23.068Z,71.22
2017-09-20T20:04:50.909Z,71.47
2017-09-20T20:07:18.775Z,71.71
2017-09-20T20:09:46.740Z,71.95
2017-09-20T20:12:14.322Z,72.13
2017-09-20T20:14:41.944Z,72.11
2017-09-20T20:17:09.543Z,71.99
2017-09-20T20:19:37.155Z,72.08
2017-09-20T20:22:04.796Z,72.30
2017-09-20T20:24:32.390Z,72.21
2017-09-20T20:27:00.037Z,72.61
2017-09-20T20:29:27.669Z,72.62
2017-09-20T20:31:55.712Z,72.92
2017-09-20T20:34:23.315Z,72.66
2017-09-20T20:36:50.966Z,72.70
2017-09-20T20:39:18.731Z,72.77
2017-09-20T20:41:46.342Z,72.53
2017-09-20T20:44:14.231Z,72.77
2017-09-20T20:46:41.865Z,72.74
2017-09-20T20:49:09.455Z,72.34
2017-09-20T20:51:37.134Z,72.67
2017-09-20T20:54:04.711Z,72.24
2017-09-20T20:56:32.312Z,72.48
2017-09-20T20:58:59.943Z,72.60
2017-09-20T21:01:27.536Z,72.78
2017-09-20T21:03:55.428Z,72.79
2017-09-20T21:06:23.055Z,73.00
2017-09-20T21:08:50.654Z,72.95
2017-09-20T21:11:18.271Z,72.87
2017-09-20T21:13:45.880Z,72.77
2017-09-20T21:16:13.512Z,72.77
2017-09-20T21:18:41.127Z,72.70
2017-09-20T21:21:08.711Z,72.61
2017-09-20T21:23:36.328Z,72.38
2017-09-20T21:26:03.924Z,72.30
2017-09-20T21:28:31.729Z,72.09
2017-09-20T21:30:59.352Z,72.04
2017-09-20T21:33:26.946Z,72.09
2017-09-20T21:35:54.579Z,72.10
2017-09-20T21:38:22.185Z,72.18
2017-09-20T21:40:49.820Z,72.48
2017-09-20T21:43:17.460Z,72.44
2017-09-20T21:45:45.089Z,72.62
2017-09-20T21:48:12.700Z,72.32
2017-09-20T21:50:40.299Z,72.40
2017-09-20T21:53:07.932Z,72.45
2017-09-20T21:55:35.527Z,72.15
2017-09-20T21:58:03.205Z,72.17
2017-09-20T22:00:30.811Z,72.39
2017-09-20T22:02:58.394Z,72.70
2017-09-20T22:05:26.012Z,72.46
2017-09-20T22:07:53.612Z,72.33
2017-09-20T22:10:21.232Z,72.26
2017-09-20T22:12:48.857Z,72.49
2017-09-20T22:15:28.521Z,72.40
2017-09-20T22:18:07.994Z,72.33
2017-09-20T22:20:47.419Z,72.43
2017-09-20T22:23:27.138Z,72.43
2017-09-20T22:26:06.488Z,72.50
2017-09-20T22:28:34.099Z,72.63
2017-09-20T22:31:01.692Z,72.60
2017-09-20T22:33:29.565Z,72.69
2017-09-20T22:35:57.487Z,72.50
2017-09-20T22:38:25.405Z,72.53
2017-09-20T22:40:53.163Z,72.44
2017-09-20T22:43:20.773Z,72.75
2017-09-20T22:45:48.700Z,72.82
2017-09-20T22:48:16.281Z,72.85
2017-09-20T22:50:43.863Z,72.74
2017-09-20T22:53:11.481Z,72.86
2017-09-20T22:55:39.092Z,72.92
2017-09-20T22:58:06.708Z,73.22
2017-09-20T23:00:34.282Z,73.21
2017-09-20T23:03:01.866Z,72.79
2017-09-20T23:05:29.568Z,73.09
2017-09-20T23:07:57.157Z,73.42
2017-09-20T23:10:24.827Z,73.39
2017-09-20T23:12:52.419Z,73.13
2017-09-20T23:15:20.004Z,73.83
2017-09-20T23:17:47.612Z,74.05
2017-09-20T23:20:15.201Z,74.08
2017-09-20T23:22:42.845Z,73.96
2017-09-20T23:25:10.587Z,74.50
2017-09-20T23:27:38.187Z,74.41
2017-09-20T23:30:05.828Z,74.30
2017-09-20T23:32:33.412Z,74.19
2017-09-20T23:35:01.046Z,74.08
2017-09-20T23:37:28.615Z,74.26
2017-09-20T23:39:56.700Z,74.41
2017-09-20T23:42:24.323Z,74.55
2017-09-20T23:44:51.906Z,74.60
2017-09-20T23:47:19.535Z,74.53
2017-09-20T23:49:47.427Z,74.50
2017-09-20T23:52:15.011Z,74.72
2017-09-20T23:54:42.616Z,74.36
2017-09-20T23:57:10.205Z,74.72
2017-09-20T23:59:37.828Z,74.60
